sensor_id;sensor_type;location;lat;lon;timestamp;P1;durP1;ratioP1;P2;durP2;ratioP2
18274;SDS011;19470;49.322;7.218;2023-02-28T00:00:06;4.40;;;1.60;;
18274;SDS011;19470;49.322;7.218;2023-02-28T00:02:35;2.10;;;1.60;;
18274;SDS011;19470;49.322;7.218;2023-02-28T00:05:03;1.83;;;1.30;;
18274;SDS011;19470;49.322;7.218;2023-02-28T00:07:31;2.60;;;1.60;;
18274;SDS011;19470;49.322;7.218;2023-02-28T00:09:57;2.80;;;1.60;;
18274;SDS011;19470;49.322;7.218;2023-02-28T00:12:25;2.50;;;1.50;;
18274;SDS011;19470;49.322;7.218;2023-02-28T00:14:51;5.33;;;1.63;;
18274;SDS011;19470;49.322;7.218;2023-02-28T00:17:18;2.67;;;1.50;;
18274;SDS011;19470;49.322;7.218;2023-02-28T00:19:46;2.23;;;1.60;;
18274;SDS011;19470;49.322;7.218;2023-02-28T00:22:14;2.67;;;1.60;;
18274;SDS011;19470;49.322;7.218;2023-02-28T00:24:41;1.40;;;1.30;;
18274;SDS011;19470;49.322;7.218;2023-02-28T00:27:07;1.73;;;1.40;;
18274;SDS011;19470;49.322;7.218;2023-02-28T00:29:34;1.40;;;1.27;;
18274;SDS011;19470;49.322;7.218;2023-02-28T00:32:00;2.03;;;1.40;;
18274;SDS011;19470;49.322;7.218;2023-02-28T00:34:27;2.17;;;1.50;;
18274;SDS011;19470;49.322;7.218;2023-02-28T00:36:53;2.07;;;1.60;;
18274;SDS011;19470;49.322;7.218;2023-02-28T00:39:21;1.90;;;1.53;;
18274;SDS011;19470;49.322;7.218;2023-02-28T00:41:48;3.13;;;1.60;;
18274;SDS011;19470;49.322;7.218;2023-02-28T00:44:14;2.40;;;1.47;;
18274;SDS011;19470;49.322;7.218;2023-02-28T00:46:41;2.07;;;1.40;;
18274;SDS011;19470;49.322;7.218;2023-02-28T00:49:07;2.00;;;1.43;;
18274;SDS011;19470;49.322;7.218;2023-02-28T00:51:34;1.17;;;1.10;;
18274;SDS011;19470;49.322;7.218;2023-02-28T00:54:00;3.37;;;1.60;;
18274;SDS011;19470;49.322;7.218;2023-02-28T00:56:28;3.13;;;1.50;;
18274;SDS011;19470;49.322;7.218;2023-02-28T00:58:55;2.40;;;1.23;;
18274;SDS011;19470;49.322;7.218;2023-02-28T01:01:21;2.37;;;1.80;;
18274;SDS011;19470;49.322;7.218;2023-02-28T01:03:47;1.63;;;1.40;;
18274;SDS011;19470;49.322;7.218;2023-02-28T01:06:14;1.50;;;1.30;;
18274;SDS011;19470;49.322;7.218;2023-02-28T01:08:40;1.40;;;1.30;;
18274;SDS011;19470;49.322;7.218;2023-02-28T01:11:07;1.53;;;1.23;;
18274;SDS011;19470;49.322;7.218;2023-02-28T01:13:36;2.47;;;1.57;;
18274;SDS011;19470;49.322;7.218;2023-02-28T01:16:03;2.83;;;1.57;;
18274;SDS011;19470;49.322;7.218;2023-02-28T01:18:30;17.83;;;8.47;;
18274;SDS011;19470;49.322;7.218;2023-02-28T01:20:57;4.13;;;1.70;;
18274;SDS011;19470;49.322;7.218;2023-02-28T01:23:23;5.43;;;1.60;;
18274;SDS011;19470;49.322;7.218;2023-02-28T01:25:50;1.87;;;1.70;;
18274;SDS011;19470;49.322;7.218;2023-02-28T01:28:17;2.23;;;1.60;;
18274;SDS011;19470;49.322;7.218;2023-02-28T01:30:48;2.00;;;1.50;;
18274;SDS011;19470;49.322;7.218;2023-02-28T01:33:15;2.00;;;1.70;;
18274;SDS011;19470;49.322;7.218;2023-02-28T01:35:41;1.60;;;1.47;;
18274;SDS011;19470;49.322;7.218;2023-02-28T01:38:08;1.53;;;1.37;;
18274;SDS011;19470;49.322;7.218;2023-02-28T01:40:34;3.07;;;1.67;;
18274;SDS011;19470;49.322;7.218;2023-02-28T01:43:01;2.27;;;1.60;;
18274;SDS011;19470;49.322;7.218;2023-02-28T01:45:27;3.07;;;2.67;;
18274;SDS011;19470;49.322;7.218;2023-02-28T01:47:58;1.90;;;1.57;;
18274;SDS011;19470;49.322;7.218;2023-02-28T01:50:28;2.13;;;1.67;;
18274;SDS011;19470;49.322;7.218;2023-02-28T01:52:58;2.73;;;1.90;;
18274;SDS011;19470;49.322;7.218;2023-02-28T01:55:31;5.27;;;1.70;;
18274;SDS011;19470;49.322;7.218;2023-02-28T01:57:59;3.47;;;2.03;;
18274;SDS011;19470;49.322;7.218;2023-02-28T02:00:27;4.47;;;1.80;;
18274;SDS011;19470;49.322;7.218;2023-02-28T02:02:57;4.53;;;2.10;;
18274;SDS011;19470;49.322;7.218;2023-02-28T02:05:27;2.67;;;1.90;;
18274;SDS011;19470;49.322;7.218;2023-02-28T02:07:56;2.43;;;2.00;;
18274;SDS011;19470;49.322;7.218;2023-02-28T02:10:29;1.97;;;1.60;;
18274;SDS011;19470;49.322;7.218;2023-02-28T02:13:08;2.10;;;1.60;;
18274;SDS011;19470;49.322;7.218;2023-02-28T02:15:45;2.60;;;2.13;;
18274;SDS011;19470;49.322;7.218;2023-02-28T02:18:23;5.47;;;2.20;;
18274;SDS011;19470;49.322;7.218;2023-02-28T02:27:17;1.83;;;1.70;;
18274;SDS011;19470;49.322;7.218;2023-02-28T02:29:55;2.50;;;1.90;;
18274;SDS011;19470;49.322;7.218;2023-02-28T02:32:44;4.37;;;2.20;;
18274;SDS011;19470;49.322;7.218;2023-02-28T02:35:26;2.83;;;2.13;;
18274;SDS011;19470;49.322;7.218;2023-02-28T02:37:57;2.83;;;2.00;;
18274;SDS011;19470;49.322;7.218;2023-02-28T02:40:33;2.23;;;1.83;;
18274;SDS011;19470;49.322;7.218;2023-02-28T02:43:05;2.93;;;2.00;;
18274;SDS011;19470;49.322;7.218;2023-02-28T02:45:36;2.37;;;1.83;;
18274;SDS011;19470;49.322;7.218;2023-02-28T02:48:09;2.93;;;1.97;;
18274;SDS011;19470;49.322;7.218;2023-02-28T02:50:42;2.33;;;2.13;;
18274;SDS011;19470;49.322;7.218;2023-02-28T02:53:11;2.27;;;1.80;;
18274;SDS011;19470;49.322;7.218;2023-02-28T02:55:41;2.87;;;2.30;;
18274;SDS011;19470;49.322;7.218;2023-02-28T02:58:11;3.07;;;1.93;;
18274;SDS011;19470;49.322;7.218;2023-02-28T03:00:42;2.70;;;2.10;;
18274;SDS011;19470;49.322;7.218;2023-02-28T03:03:13;3.90;;;2.17;;
18274;SDS011;19470;49.322;7.218;2023-02-28T03:05:44;3.47;;;2.47;;
18274;SDS011;19470;49.322;7.218;2023-02-28T03:08:13;2.57;;;2.10;;
18274;SDS011;19470;49.322;7.218;2023-02-28T03:10:40;2.37;;;1.90;;
18274;SDS011;19470;49.322;7.218;2023-02-28T03:13:12;3.83;;;2.30;;
18274;SDS011;19470;49.322;7.218;2023-02-28T03:15:59;3.83;;;2.60;;
18274;SDS011;19470;49.322;7.218;2023-02-28T03:18:39;3.47;;;2.20;;
18274;SDS011;19470;49.322;7.218;2023-02-28T03:21:14;3.13;;;2.40;;
18274;SDS011;19470;49.322;7.218;2023-02-28T03:23:48;5.27;;;2.60;;
18274;SDS011;19470;49.322;7.218;2023-02-28T03:26:23;3.20;;;2.37;;
18274;SDS011;19470;49.322;7.218;2023-02-28T03:28:54;3.67;;;2.43;;
18274;SDS011;19470;49.322;7.218;2023-02-28T03:31:28;6.60;;;6.00;;
18274;SDS011;19470;49.322;7.218;2023-02-28T03:33:59;2.77;;;2.47;;
18274;SDS011;19470;49.322;7.218;2023-02-28T03:36:35;3.10;;;2.30;;
18274;SDS011;19470;49.322;7.218;2023-02-28T03:39:09;4.37;;;2.83;;
18274;SDS011;19470;49.322;7.218;2023-02-28T03:41:41;5.77;;;2.70;;
18274;SDS011;19470;49.322;7.218;2023-02-28T03:44:13;3.90;;;2.70;;
18274;SDS011;19470;49.322;7.218;2023-02-28T03:46:44;3.57;;;2.50;;
18274;SDS011;19470;49.322;7.218;2023-02-28T03:49:16;3.93;;;2.90;;
18274;SDS011;19470;49.322;7.218;2023-02-28T03:51:48;3.77;;;3.07;;
18274;SDS011;19470;49.322;7.218;2023-02-28T03:54:18;15.17;;;6.63;;
18274;SDS011;19470;49.322;7.218;2023-02-28T03:56:51;16.93;;;8.63;;
18274;SDS011;19470;49.322;7.218;2023-02-28T03:59:25;17.60;;;10.07;;
18274;SDS011;19470;49.322;7.218;2023-02-28T04:01:54;5.17;;;3.00;;
18274;SDS011;19470;49.322;7.218;2023-02-28T04:04:23;4.07;;;3.17;;
18274;SDS011;19470;49.322;7.218;2023-02-28T04:06:51;3.83;;;3.53;;
18274;SDS011;19470;49.322;7.218;2023-02-28T04:09:19;2.90;;;2.43;;
18274;SDS011;19470;49.322;7.218;2023-02-28T04:11:45;5.17;;;2.90;;
18274;SDS011;19470;49.322;7.218;2023-02-28T04:14:17;3.40;;;2.80;;
18274;SDS011;19470;49.322;7.218;2023-02-28T04:16:44;3.27;;;2.70;;
18274;SDS011;19470;49.322;7.218;2023-02-28T04:19:11;5.33;;;3.00;;
18274;SDS011;19470;49.322;7.218;2023-02-28T04:21:40;4.53;;;2.67;;
18274;SDS011;19470;49.322;7.218;2023-02-28T04:24:09;4.90;;;3.00;;
18274;SDS011;19470;49.322;7.218;2023-02-28T04:26:39;2.60;;;2.40;;
18274;SDS011;19470;49.322;7.218;2023-02-28T04:29:08;3.57;;;2.50;;
18274;SDS011;19470;49.322;7.218;2023-02-28T04:31:35;4.87;;;2.70;;
18274;SDS011;19470;49.322;7.218;2023-02-28T04:34:01;6.77;;;2.97;;
18274;SDS011;19470;49.322;7.218;2023-02-28T04:36:28;3.60;;;3.03;;
18274;SDS011;19470;49.322;7.218;2023-02-28T04:38:54;3.40;;;2.57;;
18274;SDS011;19470;49.322;7.218;2023-02-28T04:41:22;3.67;;;2.87;;
18274;SDS011;19470;49.322;7.218;2023-02-28T04:43:50;4.03;;;2.67;;
18274;SDS011;19470;49.322;7.218;2023-02-28T04:46:17;6.47;;;3.90;;
18274;SDS011;19470;49.322;7.218;2023-02-28T04:48:43;5.83;;;3.37;;
18274;SDS011;19470;49.322;7.218;2023-02-28T04:51:12;4.57;;;3.20;;
18274;SDS011;19470;49.322;7.218;2023-02-28T04:53:40;7.87;;;4.63;;
18274;SDS011;19470;49.322;7.218;2023-02-28T04:56:07;7.53;;;4.47;;
18274;SDS011;19470;49.322;7.218;2023-02-28T04:58:38;7.10;;;3.93;;
18274;SDS011;19470;49.322;7.218;2023-02-28T05:01:06;11.57;;;5.17;;
18274;SDS011;19470;49.322;7.218;2023-02-28T05:03:40;5.90;;;3.27;;
18274;SDS011;19470;49.322;7.218;2023-02-28T05:06:07;5.50;;;4.00;;
18274;SDS011;19470;49.322;7.218;2023-02-28T05:08:33;6.40;;;4.10;;
18274;SDS011;19470;49.322;7.218;2023-02-28T05:11:00;8.70;;;3.93;;
18274;SDS011;19470;49.322;7.218;2023-02-28T05:13:27;4.10;;;3.17;;
18274;SDS011;19470;49.322;7.218;2023-02-28T05:15:55;4.83;;;3.30;;
18274;SDS011;19470;49.322;7.218;2023-02-28T05:18:22;4.83;;;3.37;;
18274;SDS011;19470;49.322;7.218;2023-02-28T05:20:48;7.60;;;3.40;;
18274;SDS011;19470;49.322;7.218;2023-02-28T05:23:15;5.27;;;3.50;;
18274;SDS011;19470;49.322;7.218;2023-02-28T05:25:45;5.47;;;3.53;;
18274;SDS011;19470;49.322;7.218;2023-02-28T05:28:12;6.43;;;3.77;;
18274;SDS011;19470;49.322;7.218;2023-02-28T05:30:39;4.57;;;3.13;;
18274;SDS011;19470;49.322;7.218;2023-02-28T05:33:10;5.30;;;3.17;;
18274;SDS011;19470;49.322;7.218;2023-02-28T05:35:37;6.53;;;3.23;;
18274;SDS011;19470;49.322;7.218;2023-02-28T05:38:04;6.20;;;3.93;;
18274;SDS011;19470;49.322;7.218;2023-02-28T05:40:31;6.77;;;4.30;;
18274;SDS011;19470;49.322;7.218;2023-02-28T05:42:57;4.67;;;3.30;;
18274;SDS011;19470;49.322;7.218;2023-02-28T05:45:24;5.27;;;3.87;;
18274;SDS011;19470;49.322;7.218;2023-02-28T05:47:52;7.60;;;3.57;;
18274;SDS011;19470;49.322;7.218;2023-02-28T05:50:21;6.23;;;3.60;;
18274;SDS011;19470;49.322;7.218;2023-02-28T05:52:48;6.83;;;3.63;;
18274;SDS011;19470;49.322;7.218;2023-02-28T05:55:15;5.27;;;3.73;;
18274;SDS011;19470;49.322;7.218;2023-02-28T05:57:42;4.60;;;3.73;;
18274;SDS011;19470;49.322;7.218;2023-02-28T06:00:09;8.17;;;4.20;;
18274;SDS011;19470;49.322;7.218;2023-02-28T06:02:38;13.63;;;5.80;;
18274;SDS011;19470;49.322;7.218;2023-02-28T06:05:05;8.07;;;4.37;;
18274;SDS011;19470;49.322;7.218;2023-02-28T06:07:38;15.50;;;7.20;;
18274;SDS011;19470;49.322;7.218;2023-02-28T06:10:05;7.57;;;4.27;;
18274;SDS011;19470;49.322;7.218;2023-02-28T06:12:32;7.80;;;4.80;;
18274;SDS011;19470;49.322;7.218;2023-02-28T06:14:58;7.97;;;4.40;;
18274;SDS011;19470;49.322;7.218;2023-02-28T06:17:25;9.93;;;4.87;;
18274;SDS011;19470;49.322;7.218;2023-02-28T06:19:51;7.40;;;4.80;;
18274;SDS011;19470;49.322;7.218;2023-02-28T06:22:18;9.87;;;5.97;;
18274;SDS011;19470;49.322;7.218;2023-02-28T06:24:46;9.73;;;5.43;;
18274;SDS011;19470;49.322;7.218;2023-02-28T06:27:12;9.70;;;5.30;;
18274;SDS011;19470;49.322;7.218;2023-02-28T06:29:39;11.90;;;5.37;;
18274;SDS011;19470;49.322;7.218;2023-02-28T06:32:05;8.13;;;4.27;;
18274;SDS011;19470;49.322;7.218;2023-02-28T06:34:32;10.77;;;5.20;;
18274;SDS011;19470;49.322;7.218;2023-02-28T06:36:59;14.10;;;5.70;;
18274;SDS011;19470;49.322;7.218;2023-02-28T06:39:27;8.77;;;5.27;;
18274;SDS011;19470;49.322;7.218;2023-02-28T06:41:54;7.70;;;4.20;;
18274;SDS011;19470;49.322;7.218;2023-02-28T06:44:21;9.13;;;4.83;;
18274;SDS011;19470;49.322;7.218;2023-02-28T06:46:49;11.63;;;5.57;;
18274;SDS011;19470;49.322;7.218;2023-02-28T06:49:15;10.27;;;5.17;;
18274;SDS011;19470;49.322;7.218;2023-02-28T06:51:43;9.07;;;5.97;;
18274;SDS011;19470;49.322;7.218;2023-02-28T06:54:11;7.40;;;4.47;;
18274;SDS011;19470;49.322;7.218;2023-02-28T06:56:38;7.17;;;5.20;;
18274;SDS011;19470;49.322;7.218;2023-02-28T06:59:05;6.37;;;4.00;;
18274;SDS011;19470;49.322;7.218;2023-02-28T07:01:32;8.30;;;5.03;;
18274;SDS011;19470;49.322;7.218;2023-02-28T07:03:59;7.23;;;5.10;;
18274;SDS011;19470;49.322;7.218;2023-02-28T07:06:26;14.27;;;8.27;;
18274;SDS011;19470;49.322;7.218;2023-02-28T07:08:53;7.30;;;4.83;;
18274;SDS011;19470;49.322;7.218;2023-02-28T07:11:20;12.00;;;6.73;;
18274;SDS011;19470;49.322;7.218;2023-02-28T07:13:48;12.93;;;5.20;;
18274;SDS011;19470;49.322;7.218;2023-02-28T07:16:17;9.70;;;4.80;;
18274;SDS011;19470;49.322;7.218;2023-02-28T07:18:44;4.63;;;3.43;;
18274;SDS011;19470;49.322;7.218;2023-02-28T07:21:10;5.93;;;4.20;;
18274;SDS011;19470;49.322;7.218;2023-02-28T07:23:37;4.13;;;2.87;;
18274;SDS011;19470;49.322;7.218;2023-02-28T07:26:05;8.73;;;4.63;;
18274;SDS011;19470;49.322;7.218;2023-02-28T07:28:32;15.57;;;4.63;;
18274;SDS011;19470;49.322;7.218;2023-02-28T07:31:02;5.67;;;3.90;;
18274;SDS011;19470;49.322;7.218;2023-02-28T07:33:31;5.37;;;4.13;;
18274;SDS011;19470;49.322;7.218;2023-02-28T07:36:02;6.83;;;3.77;;
18274;SDS011;19470;49.322;7.218;2023-02-28T07:38:29;12.30;;;6.90;;
18274;SDS011;19470;49.322;7.218;2023-02-28T07:40:56;9.47;;;5.43;;
18274;SDS011;19470;49.322;7.218;2023-02-28T07:43:22;6.57;;;3.97;;
18274;SDS011;19470;49.322;7.218;2023-02-28T07:45:49;7.93;;;4.17;;
18274;SDS011;19470;49.322;7.218;2023-02-28T07:48:15;6.03;;;4.37;;
18274;SDS011;19470;49.322;7.218;2023-02-28T07:50:43;4.83;;;3.67;;
18274;SDS011;19470;49.322;7.218;2023-02-28T07:53:13;15.57;;;12.93;;
18274;SDS011;19470;49.322;7.218;2023-02-28T07:55:39;6.43;;;3.83;;
18274;SDS011;19470;49.322;7.218;2023-02-28T07:58:05;7.27;;;3.47;;
18274;SDS011;19470;49.322;7.218;2023-02-28T08:00:32;6.97;;;4.07;;
18274;SDS011;19470;49.322;7.218;2023-02-28T08:02:58;5.47;;;4.03;;
18274;SDS011;19470;49.322;7.218;2023-02-28T08:05:25;5.53;;;3.97;;
18274;SDS011;19470;49.322;7.218;2023-02-28T08:07:53;8.03;;;4.40;;
18274;SDS011;19470;49.322;7.218;2023-02-28T08:10:19;6.17;;;3.67;;
18274;SDS011;19470;49.322;7.218;2023-02-28T08:12:46;4.90;;;3.77;;
18274;SDS011;19470;49.322;7.218;2023-02-28T08:15:12;9.03;;;4.70;;
18274;SDS011;19470;49.322;7.218;2023-02-28T08:17:39;9.03;;;4.80;;
18274;SDS011;19470;49.322;7.218;2023-02-28T08:20:06;7.90;;;4.97;;
18274;SDS011;19470;49.322;7.218;2023-02-28T08:22:34;13.20;;;5.80;;
18274;SDS011;19470;49.322;7.218;2023-02-28T08:25:02;5.63;;;3.53;;
18274;SDS011;19470;49.322;7.218;2023-02-28T08:27:28;4.27;;;3.17;;
18274;SDS011;19470;49.322;7.218;2023-02-28T08:29:55;7.37;;;3.80;;
18274;SDS011;19470;49.322;7.218;2023-02-28T08:32:21;4.60;;;3.50;;
18274;SDS011;19470;49.322;7.218;2023-02-28T08:34:48;5.70;;;3.50;;
18274;SDS011;19470;49.322;7.218;2023-02-28T08:37:14;65.30;;;59.37;;
18274;SDS011;19470;49.322;7.218;2023-02-28T08:39:41;40.77;;;38.07;;
18274;SDS011;19470;49.322;7.218;2023-02-28T08:42:08;9.63;;;8.90;;
18274;SDS011;19470;49.322;7.218;2023-02-28T08:44:35;4.47;;;3.30;;
18274;SDS011;19470;49.322;7.218;2023-02-28T08:47:01;18.73;;;7.47;;
18274;SDS011;19470;49.322;7.218;2023-02-28T08:49:28;12.40;;;5.50;;
18274;SDS011;19470;49.322;7.218;2023-02-28T08:51:54;21.97;;;19.73;;
18274;SDS011;19470;49.322;7.218;2023-02-28T08:54:22;6.20;;;3.47;;
18274;SDS011;19470;49.322;7.218;2023-02-28T08:56:48;65.47;;;60.70;;
18274;SDS011;19470;49.322;7.218;2023-02-28T08:59:16;52.60;;;49.20;;
18274;SDS011;19470;49.322;7.218;2023-02-28T09:01:43;7.60;;;5.40;;
18274;SDS011;19470;49.322;7.218;2023-02-28T09:04:09;4.93;;;3.50;;
18274;SDS011;19470;49.322;7.218;2023-02-28T09:06:36;76.77;;;69.57;;
18274;SDS011;19470;49.322;7.218;2023-02-28T09:09:03;8.10;;;3.30;;
18274;SDS011;19470;49.322;7.218;2023-02-28T09:11:32;58.97;;;49.50;;
18274;SDS011;19470;49.322;7.218;2023-02-28T09:13:59;7.07;;;3.90;;
18274;SDS011;19470;49.322;7.218;2023-02-28T09:16:29;5.67;;;4.00;;
18274;SDS011;19470;49.322;7.218;2023-02-28T09:18:57;166.23;;;153.20;;
18274;SDS011;19470;49.322;7.218;2023-02-28T09:21:23;4.67;;;3.87;;
18274;SDS011;19470;49.322;7.218;2023-02-28T09:23:50;5.30;;;3.30;;
18274;SDS011;19470;49.322;7.218;2023-02-28T09:26:18;8.00;;;4.00;;
18274;SDS011;19470;49.322;7.218;2023-02-28T09:28:47;66.97;;;61.23;;
18274;SDS011;19470;49.322;7.218;2023-02-28T09:31:14;13.17;;;12.07;;
18274;SDS011;19470;49.322;7.218;2023-02-28T09:33:47;4.97;;;3.80;;
18274;SDS011;19470;49.322;7.218;2023-02-28T09:36:13;6.33;;;4.67;;
18274;SDS011;19470;49.322;7.218;2023-02-28T09:38:40;9.10;;;5.30;;
18274;SDS011;19470;49.322;7.218;2023-02-28T09:41:10;9.63;;;7.20;;
18274;SDS011;19470;49.322;7.218;2023-02-28T09:43:40;5.78;;;4.35;;
18274;SDS011;19470;49.322;7.218;2023-02-28T09:46:14;5.47;;;4.60;;
18274;SDS011;19470;49.322;7.218;2023-02-28T09:48:53;7.05;;;4.95;;
18274;SDS011;19470;49.322;7.218;2023-02-28T09:51:30;8.82;;;8.15;;
18274;SDS011;19470;49.322;7.218;2023-02-28T09:54:03;12.20;;;9.80;;
18274;SDS011;19470;49.322;7.218;2023-02-28T09:56:33;50.42;;;47.58;;
18274;SDS011;19470;49.322;7.218;2023-02-28T09:59:05;9.73;;;8.82;;
18274;SDS011;19470;49.322;7.218;2023-02-28T10:01:43;29.30;;;27.50;;
18274;SDS011;19470;49.322;7.218;2023-02-28T10:04:26;32.05;;;28.63;;
18274;SDS011;19470;49.322;7.218;2023-02-28T10:07:04;43.08;;;40.47;;
18274;SDS011;19470;49.322;7.218;2023-02-28T10:09:42;261.25;;;241.50;;
18274;SDS011;19470;49.322;7.218;2023-02-28T10:12:12;209.95;;;197.02;;
18274;SDS011;19470;49.322;7.218;2023-02-28T10:14:43;26.80;;;25.20;;
18274;SDS011;19470;49.322;7.218;2023-02-28T10:17:14;88.75;;;83.75;;
18274;SDS011;19470;49.322;7.218;2023-02-28T10:19:49;186.13;;;173.75;;
18274;SDS011;19470;49.322;7.218;2023-02-28T10:22:23;213.32;;;198.80;;
18274;SDS011;19470;49.322;7.218;2023-02-28T10:24:55;28.70;;;26.73;;
18274;SDS011;19470;49.322;7.218;2023-02-28T10:27:28;49.60;;;46.58;;
18274;SDS011;19470;49.322;7.218;2023-02-28T10:29:57;35.13;;;32.70;;
18274;SDS011;19470;49.322;7.218;2023-02-28T10:32:26;35.33;;;33.13;;
18274;SDS011;19470;49.322;7.218;2023-02-28T10:34:57;24.40;;;22.75;;
18274;SDS011;19470;49.322;7.218;2023-02-28T10:37:26;165.07;;;153.77;;
18274;SDS011;19470;49.322;7.218;2023-02-28T10:39:52;40.05;;;37.75;;
18274;SDS011;19470;49.322;7.218;2023-02-28T10:42:20;57.08;;;53.78;;
18274;SDS011;19470;49.322;7.218;2023-02-28T10:44:57;203.70;;;193.48;;
18274;SDS011;19470;49.322;7.218;2023-02-28T10:47:31;253.55;;;239.80;;
18274;SDS011;19470;49.322;7.218;2023-02-28T10:50:01;267.80;;;253.40;;
18274;SDS011;19470;49.322;7.218;2023-02-28T10:52:33;288.20;;;273.23;;
18274;SDS011;19470;49.322;7.218;2023-02-28T10:55:16;232.15;;;220.45;;
18274;SDS011;19470;49.322;7.218;2023-02-28T10:57:47;335.83;;;318.35;;
18274;SDS011;19470;49.322;7.218;2023-02-28T11:00:14;493.98;;;465.25;;
18274;SDS011;19470;49.322;7.218;2023-02-28T11:02:43;718.53;;;671.28;;
18274;SDS011;19470;49.322;7.218;2023-02-28T11:05:23;604.65;;;561.25;;
18274;SDS011;19470;49.322;7.218;2023-02-28T11:07:51;1572.10;;;815.67;;
18274;SDS011;19470;49.322;7.218;2023-02-28T11:10:18;836.45;;;776.78;;
18274;SDS011;19470;49.322;7.218;2023-02-28T11:12:47;931.63;;;864.83;;
18274;SDS011;19470;49.322;7.218;2023-02-28T11:15:20;878.67;;;818.03;;
18274;SDS011;19470;49.322;7.218;2023-02-28T11:17:53;916.92;;;852.38;;
18274;SDS011;19470;49.322;7.218;2023-02-28T11:20:24;679.08;;;621.45;;
18274;SDS011;19470;49.322;7.218;2023-02-28T11:22:52;1999.90;;;999.90;;
18274;SDS011;19470;49.322;7.218;2023-02-28T11:25:22;1999.90;;;999.90;;
18274;SDS011;19470;49.322;7.218;2023-02-28T11:27:53;1999.90;;;999.90;;
18274;SDS011;19470;49.322;7.218;2023-02-28T11:30:24;1999.90;;;999.90;;
18274;SDS011;19470;49.322;7.218;2023-02-28T11:32:53;1999.90;;;999.90;;
18274;SDS011;19470;49.322;7.218;2023-02-28T11:35:21;1999.90;;;999.90;;
18274;SDS011;19470;49.322;7.218;2023-02-28T11:37:52;1999.90;;;999.90;;
18274;SDS011;19470;49.322;7.218;2023-02-28T11:40:21;1999.90;;;999.90;;
18274;SDS011;19470;49.322;7.218;2023-02-28T11:42:57;961.60;;;881.70;;
18274;SDS011;19470;49.322;7.218;2023-02-28T11:45:43;828.35;;;759.42;;
18274;SDS011;19470;49.322;7.218;2023-02-28T11:48:26;193.85;;;171.57;;
18274;SDS011;19470;49.322;7.218;2023-02-28T11:51:02;836.67;;;764.55;;
18274;SDS011;19470;49.322;7.218;2023-02-28T11:53:46;895.83;;;829.50;;
18274;SDS011;19470;49.322;7.218;2023-02-28T11:56:23;820.53;;;764.63;;
18274;SDS011;19470;49.322;7.218;2023-02-28T11:58:55;262.98;;;247.45;;
18274;SDS011;19470;49.322;7.218;2023-02-28T12:01:37;454.13;;;428.90;;
18274;SDS011;19470;49.322;7.218;2023-02-28T12:04:12;270.77;;;255.90;;
18274;SDS011;19470;49.322;7.218;2023-02-28T12:06:50;526.20;;;495.33;;
18274;SDS011;19470;49.322;7.218;2023-02-28T12:09:29;635.45;;;589.75;;
18274;SDS011;19470;49.322;7.218;2023-02-28T12:12:07;838.50;;;779.50;;
18274;SDS011;19470;49.322;7.218;2023-02-28T12:14:48;818.03;;;746.65;;
18274;SDS011;19470;49.322;7.218;2023-02-28T12:17:27;847.60;;;789.83;;
18274;SDS011;19470;49.322;7.218;2023-02-28T12:20:08;941.25;;;866.13;;
18274;SDS011;19470;49.322;7.218;2023-02-28T12:22:45;1999.90;;;999.90;;
18274;SDS011;19470;49.322;7.218;2023-02-28T12:25:21;1999.90;;;999.90;;
18274;SDS011;19470;49.322;7.218;2023-02-28T12:27:58;1999.90;;;999.90;;
18274;SDS011;19470;49.322;7.218;2023-02-28T12:30:26;1999.90;;;999.90;;
18274;SDS011;19470;49.322;7.218;2023-02-28T12:32:56;1999.90;;;999.90;;
18274;SDS011;19470;49.322;7.218;2023-02-28T12:35:32;1999.90;;;999.90;;
18274;SDS011;19470;49.322;7.218;2023-02-28T12:38:04;1999.90;;;999.90;;
18274;SDS011;19470;49.322;7.218;2023-02-28T12:40:41;1999.90;;;999.90;;
18274;SDS011;19470;49.322;7.218;2023-02-28T12:43:11;1999.90;;;999.90;;
18274;SDS011;19470;49.322;7.218;2023-02-28T12:45:41;1999.90;;;999.90;;
18274;SDS011;19470;49.322;7.218;2023-02-28T12:48:14;1999.90;;;999.90;;
18274;SDS011;19470;49.322;7.218;2023-02-28T12:50:44;1999.90;;;999.90;;
18274;SDS011;19470;49.322;7.218;2023-02-28T12:53:13;1999.90;;;999.90;;
18274;SDS011;19470;49.322;7.218;2023-02-28T12:55:48;1999.90;;;999.90;;
18274;SDS011;19470;49.322;7.218;2023-02-28T12:58:23;1999.90;;;999.90;;
18274;SDS011;19470;49.322;7.218;2023-02-28T13:01:04;1999.90;;;999.90;;
18274;SDS011;19470;49.322;7.218;2023-02-28T13:06:55;1999.90;;;999.90;;
18274;SDS011;19470;49.322;7.218;2023-02-28T13:09:35;1999.90;;;999.90;;
18274;SDS011;19470;49.322;7.218;2023-02-28T13:12:07;1999.90;;;999.90;;
18274;SDS011;19470;49.322;7.218;2023-02-28T13:14:39;1999.90;;;999.90;;
18274;SDS011;19470;49.322;7.218;2023-02-28T13:17:17;301.13;;;269.30;;
18274;SDS011;19470;49.322;7.218;2023-02-28T13:19:46;851.50;;;779.65;;
18274;SDS011;19470;49.322;7.218;2023-02-28T13:22:36;967.72;;;893.28;;
18274;SDS011;19470;49.322;7.218;2023-02-28T13:28:56;579.38;;;529.78;;
18274;SDS011;19470;49.322;7.218;2023-02-28T13:31:33;616.92;;;569.42;;
18274;SDS011;19470;49.322;7.218;2023-02-28T13:34:39;415.40;;;366.23;;
18274;SDS011;19470;49.322;7.218;2023-02-28T13:40:00;1999.90;;;999.90;;
18274;SDS011;19470;49.322;7.218;2023-02-28T13:42:52;1999.90;;;999.90;;
18274;SDS011;19470;49.322;7.218;2023-02-28T13:45:23;1999.90;;;999.90;;
18274;SDS011;19470;49.322;7.218;2023-02-28T13:47:52;1999.90;;;999.90;;
18274;SDS011;19470;49.322;7.218;2023-02-28T13:50:22;1999.90;;;999.90;;
18274;SDS011;19470;49.322;7.218;2023-02-28T13:55:57;1999.90;;;999.90;;
18274;SDS011;19470;49.322;7.218;2023-02-28T13:58:32;1999.90;;;999.90;;
18274;SDS011;19470;49.322;7.218;2023-02-28T14:01:11;1999.90;;;999.90;;
18274;SDS011;19470;49.322;7.218;2023-02-28T14:04:07;1999.90;;;999.90;;
18274;SDS011;19470;49.322;7.218;2023-02-28T14:06:49;1999.90;;;999.90;;
18274;SDS011;19470;49.322;7.218;2023-02-28T14:09:19;1999.90;;;999.90;;
18274;SDS011;19470;49.322;7.218;2023-02-28T14:11:49;1999.90;;;999.90;;
18274;SDS011;19470;49.322;7.218;2023-02-28T14:17:20;1999.90;;;999.90;;
18274;SDS011;19470;49.322;7.218;2023-02-28T14:19:47;1999.90;;;999.90;;
18274;SDS011;19470;49.322;7.218;2023-02-28T14:22:25;1999.90;;;999.90;;
18274;SDS011;19470;49.322;7.218;2023-02-28T14:25:10;1999.90;;;999.90;;
18274;SDS011;19470;49.322;7.218;2023-02-28T14:27:48;1999.90;;;999.90;;
18274;SDS011;19470;49.322;7.218;2023-02-28T14:33:20;1999.90;;;999.90;;
18274;SDS011;19470;49.322;7.218;2023-02-28T14:35:55;1999.90;;;999.90;;
18274;SDS011;19470;49.322;7.218;2023-02-28T14:38:29;1999.90;;;999.90;;
18274;SDS011;19470;49.322;7.218;2023-02-28T14:41:00;1999.90;;;999.90;;
18274;SDS011;19470;49.322;7.218;2023-02-28T14:43:31;1999.90;;;999.90;;
18274;SDS011;19470;49.322;7.218;2023-02-28T14:45:58;1999.90;;;999.90;;
18274;SDS011;19470;49.322;7.218;2023-02-28T14:48:26;1999.90;;;999.90;;
18274;SDS011;19470;49.322;7.218;2023-02-28T14:50:54;1999.90;;;999.90;;
18274;SDS011;19470;49.322;7.218;2023-02-28T14:53:23;741.35;;;674.22;;
18274;SDS011;19470;49.322;7.218;2023-02-28T14:55:53;1073.88;;;982.45;;
18274;SDS011;19470;49.322;7.218;2023-02-28T14:58:21;1606.07;;;845.42;;
18274;SDS011;19470;49.322;7.218;2023-02-28T15:00:50;1999.90;;;999.90;;
18274;SDS011;19470;49.322;7.218;2023-02-28T15:03:20;1999.90;;;999.90;;
18274;SDS011;19470;49.322;7.218;2023-02-28T15:05:51;1999.90;;;999.90;;
18274;SDS011;19470;49.322;7.218;2023-02-28T15:08:18;1999.90;;;999.90;;
18274;SDS011;19470;49.322;7.218;2023-02-28T15:10:49;1999.90;;;999.90;;